Time;durP1;ratioP1;P1;durP2;ratioP2;P2;SDS_P1;SDS_P2;PMS_P1;PMS_P2;Temp;Humidity;BMP_temperature;BMP_pressure;BME280_temperature;BME280_humidity;BME280_pressure;Samples;Min_cycle;Max_cycle;Signal;HPM_P1;HPM_P2
2022/11/21 00:02:03;;;;;;;12.93;7.17;;;;;;;-1.28;98.57;99978.47;5078806;28;20463;-69
2022/11/21 00:04:31;;;;;;;20.40;8.50;;;;;;;-1.29;99.84;99971.50;5075241;28;20463;-69
2022/11/21 00:06:57;;;;;;;12.63;6.10;;;;;;;-1.29;99.29;99974.16;5073998;28;20453;-68
2022/11/21 00:09:24;;;;;;;14.07;7.27;;;;;;;-1.35;100.00;99971.66;5075063;28;20958;-69
2022/11/21 00:11:51;;;;;;;14.00;7.10;;;;;;;-1.32;100.00;99966.69;5075199;28;20449;-69
2022/11/21 00:14:18;;;;;;;16.13;6.60;;;;;;;-1.30;100.00;99967.25;5075658;28;20472;-69
2022/11/21 00:16:46;;;;;;;14.93;6.37;;;;;;;-1.24;100.00;99970.00;5075135;28;21065;-69
2022/11/21 00:19:13;;;;;;;11.73;6.37;;;;;;;-1.16;99.93;99959.78;5074902;28;20457;-69
2022/11/21 00:21:40;;;;;;;20.70;7.20;;;;;;;-1.25;100.00;99960.41;5074803;28;20484;-69
2022/11/21 00:24:10;;;;;;;15.10;6.10;;;;;;;-1.17;100.00;99949.41;5075074;28;21025;-69
2022/11/21 00:26:37;;;;;;;13.33;5.73;;;;;;;-1.02;100.00;99947.84;5075259;28;20464;-69
2022/11/21 00:29:04;;;;;;;12.43;5.50;;;;;;;-1.04;100.00;99946.44;5073169;28;20540;-69
2022/11/21 00:31:31;;;;;;;18.13;7.10;;;;;;;-1.09;100.00;99935.75;5074619;28;20477;-69
2022/11/21 00:33:59;;;;;;;12.83;5.80;;;;;;;-1.09;100.00;99930.41;5076995;28;20986;-69
2022/11/21 00:36:26;;;;;;;11.90;5.30;;;;;;;-1.08;100.00;99934.69;5074206;28;21011;-68
2022/11/21 00:38:52;;;;;;;13.70;6.37;;;;;;;-0.98;100.00;99931.38;5072388;28;20458;-69
2022/11/21 00:41:19;;;;;;;16.07;5.93;;;;;;;-0.94;100.00;99929.84;5075317;28;20473;-69
2022/11/21 00:43:45;;;;;;;16.20;6.00;;;;;;;-0.79;100.00;99930.13;5076381;28;21001;-68
2022/11/21 00:46:12;;;;;;;12.70;6.83;;;;;;;-0.84;100.00;99930.84;5078811;28;20522;-69
2022/11/21 00:48:39;;;;;;;19.17;6.60;;;;;;;-0.73;100.00;99925.66;5075615;28;20497;-69
2022/11/21 00:51:06;;;;;;;11.80;5.67;;;;;;;-0.65;100.00;99925.28;5074963;28;20513;-69
2022/11/21 00:53:33;;;;;;;11.30;5.43;;;;;;;-0.69;99.99;99916.97;5074192;28;20458;-69
2022/11/21 00:56:00;;;;;;;13.43;6.20;;;;;;;-0.80;99.41;99915.19;5076822;28;20485;-69
2022/11/21 00:58:27;;;;;;;15.60;7.30;;;;;;;-0.95;100.00;99913.09;5074635;28;20544;-69
2022/11/21 01:01:02;;;;;;;16.00;6.90;;;;;;;-0.90;100.00;99915.84;5076860;28;20515;-68
2022/11/21 01:03:29;;;;;;;16.30;5.73;;;;;;;-0.78;100.00;99913.91;5073154;28;21002;-69
2022/11/21 01:06:00;;;;;;;13.87;5.97;;;;;;;-0.78;99.99;99916.56;5074029;28;20537;-70
2022/11/21 01:08:28;;;;;;;15.57;5.80;;;;;;;-0.90;100.00;99913.19;5072998;28;20926;-69
2022/11/21 01:10:55;;;;;;;15.00;5.33;;;;;;;-0.84;100.00;99912.22;5076664;28;20504;-70
2022/11/21 01:13:22;;;;;;;20.20;5.60;;;;;;;-0.76;99.99;99906.47;5074009;28;20931;-69
2022/11/21 01:15:48;;;;;;;12.70;5.63;;;;;;;-0.67;99.91;99909.53;5073758;28;20534;-70
2022/11/21 01:18:15;;;;;;;12.53;5.90;;;;;;;-0.77;99.64;99898.75;5072617;28;20531;-70
2022/11/21 01:20:41;;;;;;;15.83;6.90;;;;;;;-0.77;100.00;99902.22;5074620;28;20469;-70
2022/11/21 01:23:08;;;;;;;11.50;6.03;;;;;;;-0.83;100.00;99892.56;5074264;28;20461;-70
2022/11/21 01:25:36;;;;;;;13.00;7.27;;;;;;;-0.88;100.00;99891.69;5072028;28;20487;-70
2022/11/21 01:28:03;;;;;;;16.20;6.03;;;;;;;-0.94;100.00;99890.78;5073692;28;20564;-70
2022/11/21 01:30:29;;;;;;;14.30;5.57;;;;;;;-0.94;100.00;99890.78;5073612;28;20509;-70
2022/11/21 01:32:56;;;;;;;13.07;6.60;;;;;;;-0.90;100.00;99893.78;5074827;28;20461;-70
2022/11/21 01:35:24;;;;;;;16.50;5.80;;;;;;;-0.67;100.00;99887.47;5073245;28;20457;-70
2022/11/21 01:37:51;;;;;;;15.83;7.00;;;;;;;-0.64;100.00;99887.00;5072948;28;20480;-71
2022/11/21 01:40:18;;;;;;;15.27;6.00;;;;;;;-0.63;100.00;99894.72;5072458;28;20485;-70
2022/11/21 01:42:53;;;;;;;14.93;7.10;;;;;;;-0.69;100.00;99892.22;5058658;28;20461;-70
2022/11/21 01:45:59;;;;;;;12.67;6.03;;;;;;;-0.79;100.00;99896.34;5061440;28;20464;-71
2022/11/21 01:48:30;;;;;;;19.70;7.23;;;;;;;-0.62;100.00;99891.03;5051150;28;20464;-70
2022/11/21 01:51:03;;;;;;;10.63;5.07;;;;;;;-0.43;100.00;99894.19;5076114;28;20559;-70
2022/11/21 01:53:29;;;;;;;18.40;8.17;;;;;;;-0.37;100.00;99895.06;5074203;28;20453;-70
2022/11/21 01:55:56;;;;;;;13.63;5.63;;;;;;;-0.51;100.00;99889.28;5075084;28;20551;-70
2022/11/21 01:58:25;;;;;;;17.33;7.17;;;;;;;-0.65;100.00;99883.53;5072614;28;20533;-70
2022/11/21 02:00:51;;;;;;;17.47;6.80;;;;;;;-0.68;100.00;99881.34;5072704;28;20479;-70
2022/11/21 02:03:24;;;;;;;15.90;6.40;;;;;;;-0.70;100.00;99883.47;5073054;28;20461;-70
2022/11/21 02:05:53;;;;;;;15.57;6.50;;;;;;;-0.69;100.00;99878.94;5073190;28;20461;-70
2022/11/21 02:08:21;;;;;;;16.10;7.10;;;;;;;-0.52;100.00;99883.19;5072608;28;20457;-70
2022/11/21 02:10:56;;;;;;;18.23;6.83;;;;;;;-0.54;100.00;99868.50;5076511;28;20538;-70
2022/11/21 02:13:24;;;;;;;13.63;6.03;;;;;;;-0.43;100.00;99875.59;5070924;28;20451;-70
2022/11/21 02:15:51;;;;;;;14.57;5.97;;;;;;;-0.48;100.00;99874.72;5074183;28;20458;-70
2022/11/21 02:18:17;;;;;;;15.60;7.10;;;;;;;-0.62;100.00;99879.56;5072196;28;20548;-69
2022/11/21 02:20:48;;;;;;;20.17;7.07;;;;;;;-0.57;100.00;99879.66;5071381;28;20573;-69
2022/11/21 02:23:24;;;;;;;16.40;6.43;;;;;;;-0.54;100.00;99879.13;5070389;28;20540;-70
2022/11/21 02:25:53;;;;;;;19.63;7.17;;;;;;;-0.42;100.00;99877.19;5071493;28;20459;-70
2022/11/21 02:28:23;;;;;;;12.20;6.13;;;;;;;-0.44;100.00;99871.31;5072698;28;20969;-70
2022/11/21 02:30:50;;;;;;;17.63;6.73;;;;;;;-0.37;100.00;99876.44;5072180;28;20481;-70
2022/11/21 02:33:16;;;;;;;18.43;7.00;;;;;;;-0.33;100.00;99870.38;5071101;28;20544;-70
2022/11/21 02:35:43;;;;;;;14.93;6.80;;;;;;;-0.30;100.00;99861.91;5070781;28;20492;-70
2022/11/21 02:38:17;;;;;;;16.17;6.80;;;;;;;-0.29;100.00;99873.34;5073843;28;21073;-70
2022/11/21 02:40:50;;;;;;;17.63;6.73;;;;;;;-0.35;100.00;99861.84;5072857;28;20469;-71
2022/11/21 02:43:23;;;;;;;10.80;5.40;;;;;;;-0.48;100.00;99854.25;5072884;28;20457;-71
2022/11/21 02:45:50;;;;;;;18.40;6.23;;;;;;;-0.40;100.00;99856.47;5055103;28;20469;-71
2022/11/21 02:48:16;;;;;;;11.57;6.00;;;;;;;-0.50;100.00;99848.34;5075281;28;20454;-71
2022/11/21 02:50:45;;;;;;;14.40;6.30;;;;;;;-0.54;100.00;99841.91;5071516;28;20575;-70
2022/11/21 02:53:17;;;;;;;18.10;6.73;;;;;;;-0.53;100.00;99844.34;5071782;28;20449;-71
2022/11/21 02:55:44;;;;;;;16.57;6.43;;;;;;;-0.49;100.00;99841.97;5073076;28;20835;-71
2022/11/21 02:58:11;;;;;;;17.50;7.50;;;;;;;-0.45;100.00;99831.66;5073529;28;20499;-71
2022/11/21 03:00:41;;;;;;;14.13;6.33;;;;;;;-0.48;100.00;99842.81;5071834;28;20492;-71
2022/11/21 03:03:08;;;;;;;17.40;7.77;;;;;;;-0.45;100.00;99832.44;5072589;28;20519;-70
2022/11/21 03:05:35;;;;;;;17.73;6.87;;;;;;;-0.48;100.00;99838.28;5074467;28;20461;-71
2022/11/21 03:08:01;;;;;;;21.63;8.43;;;;;;;-0.46;100.00;99852.13;5070686;28;20453;-71
2022/11/21 03:10:28;;;;;;;17.93;8.30;;;;;;;-0.51;100.00;99833.44;5072358;28;20563;-70
2022/11/21 03:12:59;;;;;;;15.27;7.07;;;;;;;-0.48;100.00;99835.63;5072555;28;20797;-70
2022/11/21 03:15:27;;;;;;;20.37;8.17;;;;;;;-0.45;100.00;99831.66;5071122;28;20824;-70
2022/11/21 03:17:55;;;;;;;12.67;5.87;;;;;;;-0.44;100.00;99833.25;5072445;28;20485;-70
2022/11/21 03:20:21;;;;;;;13.90;6.13;;;;;;;-0.35;100.00;99837.91;5075590;28;20849;-70
2022/11/21 03:22:49;;;;;;;17.43;6.70;;;;;;;-0.28;100.00;99835.06;5078402;28;20463;-70
2022/11/21 03:25:15;;;;;;;14.57;7.20;;;;;;;-0.39;100.00;99831.47;5076830;28;21028;-70
2022/11/21 03:27:42;;;;;;;19.07;8.33;;;;;;;-0.45;100.00;99834.31;5076332;28;20453;-70
2022/11/21 03:30:10;;;;;;;14.53;6.97;;;;;;;-0.30;100.00;99835.31;5077424;28;20560;-70
2022/11/21 03:32:36;;;;;;;11.90;5.37;;;;;;;-0.13;100.00;99834.44;5075973;28;20825;-70
2022/11/21 03:35:05;;;;;;;17.13;7.27;;;;;;;-0.09;100.00;99835.53;5075611;28;20461;-70
2022/11/21 03:37:32;;;;;;;14.93;6.63;;;;;;;-0.17;100.00;99834.13;5076240;28;20503;-70
2022/11/21 03:39:58;;;;;;;18.90;7.77;;;;;;;-0.20;100.00;99839.16;5073367;28;20552;-69
2022/11/21 03:42:25;;;;;;;15.20;7.00;;;;;;;-0.35;100.00;99835.25;5077891;28;20480;-69
2022/11/21 03:44:51;;;;;;;18.40;6.97;;;;;;;-0.29;100.00;99838.78;5079939;28;20464;-69
2022/11/21 03:47:18;;;;;;;16.30;7.53;;;;;;;-0.28;100.00;99838.50;5094851;28;20444;-69
2022/11/21 03:49:45;;;;;;;16.47;7.33;;;;;;;-0.36;100.00;99841.59;5081589;28;20491;-68
2022/11/21 03:52:13;;;;;;;20.57;7.30;;;;;;;-0.40;99.77;99850.31;5076271;28;20465;-68
2022/11/21 03:54:39;;;;;;;14.90;6.60;;;;;;;-0.51;99.56;99849.41;5075431;28;20483;-68
2022/11/21 03:57:06;;;;;;;16.30;7.00;;;;;;;-0.62;100.00;99847.66;5076158;28;20488;-69
2022/11/21 03:59:32;;;;;;;14.73;6.60;;;;;;;-0.51;100.00;99846.75;5077156;28;20540;-69
2022/11/21 04:01:59;;;;;;;13.40;6.30;;;;;;;-0.54;99.91;99840.03;5074809;28;20997;-69
2022/11/21 04:04:25;;;;;;;14.17;6.30;;;;;;;-0.62;99.62;99840.50;5074425;28;20961;-69
2022/11/21 04:06:52;;;;;;;15.20;5.60;;;;;;;-0.61;99.76;99850.06;5075742;28;20495;-69
2022/11/21 04:09:20;;;;;;;11.07;5.70;;;;;;;-0.62;99.11;99842.31;5075023;28;20540;-68
2022/11/21 04:11:46;;;;;;;14.93;6.10;;;;;;;-0.64;98.75;99853.22;5073982;28;20521;-68
2022/11/21 04:14:13;;;;;;;18.50;6.87;;;;;;;-0.78;99.68;99858.09;5074498;28;20490;-68
2022/11/21 04:16:40;;;;;;;10.00;5.57;;;;;;;-0.78;99.96;99855.41;5075552;28;20477;-68
2022/11/21 04:19:06;;;;;;;16.63;7.63;;;;;;;-0.89;100.00;99858.16;5074693;28;20500;-68
2022/11/21 04:21:33;;;;;;;13.90;5.63;;;;;;;-0.93;100.00;99852.56;5077581;28;20524;-68
2022/11/21 04:23:59;;;;;;;13.40;5.83;;;;;;;-0.72;100.00;99864.25;5071602;28;20560;-68
2022/11/21 04:26:27;;;;;;;17.87;8.40;;;;;;;-0.71;100.00;99865.06;5078683;28;20479;-69
2022/11/21 04:28:54;;;;;;;16.23;8.17;;;;;;;-0.79;100.00;99864.44;5075025;28;21006;-69
2022/11/21 04:31:20;;;;;;;23.43;9.00;;;;;;;-0.56;100.00;99865.28;5072383;28;20477;-68
2022/11/21 04:33:47;;;;;;;17.87;9.00;;;;;;;-0.46;100.00;99862.75;5074482;28;20468;-69
2022/11/21 04:36:13;;;;;;;21.63;9.63;;;;;;;-0.49;100.00;99876.53;5078103;28;20457;-69
2022/11/21 04:38:40;;;;;;;24.77;10.60;;;;;;;-0.50;100.00;99861.66;5072783;28;20481;-68
2022/11/21 04:41:07;;;;;;;19.67;9.97;;;;;;;-0.52;100.00;99861.09;5073013;28;21085;-69
2022/11/21 04:43:35;;;;;;;21.20;7.77;;;;;;;-0.59;99.86;99863.91;5073461;28;20940;-70
2022/11/21 04:46:02;;;;;;;19.77;7.50;;;;;;;-0.68;100.00;99867.25;5075590;28;20520;-71
2022/11/21 04:48:28;;;;;;;16.80;6.80;;;;;;;-0.77;100.00;99872.97;5079278;28;20893;-71
2022/11/21 04:50:55;;;;;;;14.50;6.40;;;;;;;-0.67;100.00;99867.00;5073196;28;20575;-70
2022/11/21 04:53:21;;;;;;;14.77;7.17;;;;;;;-0.48;100.00;99869.41;5074195;28;20504;-70
2022/11/21 04:55:48;;;;;;;18.63;7.13;;;;;;;-0.47;100.00;99871.81;5075474;28;20468;-70
2022/11/21 04:58:14;;;;;;;23.50;8.03;;;;;;;-0.58;100.00;99864.72;5073974;28;20476;-70
2022/11/21 05:00:42;;;;;;;19.77;7.87;;;;;;;-0.52;100.00;99869.06;5075565;28;20485;-70
2022/11/21 05:03:09;;;;;;;17.70;7.73;;;;;;;-0.45;100.00;99860.91;5073773;28;20447;-71
2022/11/21 05:05:36;;;;;;;17.97;8.27;;;;;;;-0.32;100.00;99863.19;5073677;28;20499;-70
2022/11/21 05:08:02;;;;;;;19.53;8.30;;;;;;;-0.27;100.00;99865.91;5074103;28;20446;-70
2022/11/21 05:10:29;;;;;;;15.53;6.10;;;;;;;-0.29;100.00;99865.38;5075497;28;20483;-71
2022/11/21 05:15:46;;;;;;;15.93;6.50;;;;;;;-0.19;100.00;99870.03;5073643;28;20448;-70
2022/11/21 05:18:13;;;;;;;19.63;7.97;;;;;;;-0.17;100.00;99875.91;5073894;28;20932;-71
2022/11/21 05:20:39;;;;;;;14.23;6.80;;;;;;;-0.23;100.00;99871.56;5074685;28;21011;-71
2022/11/21 05:23:06;;;;;;;14.97;7.47;;;;;;;-0.24;100.00;99880.59;5077818;28;20472;-70
2022/11/21 05:25:33;;;;;;;21.07;7.77;;;;;;;-0.22;100.00;99875.81;5091076;28;20468;-72
2022/11/21 05:27:59;;;;;;;16.13;8.33;;;;;;;-0.17;100.00;99876.72;5075469;28;20948;-71
2022/11/21 05:30:26;;;;;;;21.80;8.47;;;;;;;-0.14;100.00;99881.53;5073970;28;20499;-70
2022/11/21 05:32:54;;;;;;;19.63;7.57;;;;;;;-0.15;100.00;99874.59;5074179;28;20457;-70
2022/11/21 05:35:20;;;;;;;16.13;7.80;;;;;;;-0.07;100.00;99878.69;5074421;28;20449;-70
2022/11/21 05:37:47;;;;;;;14.93;7.57;;;;;;;-0.18;100.00;99880.41;5073882;28;20489;-70
2022/11/21 05:40:13;;;;;;;17.50;7.40;;;;;;;-0.29;99.80;99884.81;5075578;28;20481;-68
2022/11/21 05:45:25;;;;;;;17.60;8.03;;;;;;;-0.28;100.00;99870.44;5074086;28;20527;-70
2022/11/21 05:47:53;;;;;;;12.13;6.70;;;;;;;-0.23;100.00;99874.22;5075398;28;20453;-70
2022/11/21 05:50:20;;;;;;;18.50;7.20;;;;;;;-0.18;100.00;99876.94;5073647;28;20501;-71
2022/11/21 05:52:46;;;;;;;15.40;6.80;;;;;;;-0.31;100.00;99870.97;5073039;28;20545;-70
2022/11/21 05:55:13;;;;;;;13.40;6.73;;;;;;;-0.21;100.00;99864.16;5074026;28;20441;-70
2022/11/21 05:57:40;;;;;;;17.63;7.80;;;;;;;-0.23;100.00;99871.56;5075086;28;20513;-69
2022/11/21 06:00:07;;;;;;;14.97;7.27;;;;;;;-0.28;100.00;99869.66;5073192;28;20467;-69
2022/11/21 06:05:19;;;;;;;16.57;8.17;;;;;;;-0.11;100.00;99874.91;5072522;28;20405;-69
2022/11/21 06:07:46;;;;;;;19.10;7.90;;;;;;;-0.14;100.00;99886.03;5073534;28;20437;-70
2022/11/21 06:10:12;;;;;;;14.90;6.40;;;;;;;-0.13;100.00;99879.69;5074901;28;20584;-69
2022/11/21 06:12:39;;;;;;;16.77;7.13;;;;;;;-0.04;100.00;99881.66;5073946;28;20465;-68
2022/11/21 06:15:06;;;;;;;18.37;7.67;;;;;;;0.00;100.00;99884.63;5074991;28;20548;-69
2022/11/21 06:17:33;;;;;;;17.87;7.57;;;;;;;-0.06;100.00;99889.06;5073490;28;20485;-68
2022/11/21 06:19:59;;;;;;;14.63;6.50;;;;;;;-0.14;100.00;99886.03;5073502;28;20544;-68
2022/11/21 06:22:27;;;;;;;15.67;7.20;;;;;;;-0.28;100.00;99885.59;5073512;28;20456;-69
2022/11/21 06:24:54;;;;;;;16.30;6.07;;;;;;;-0.27;100.00;99890.69;5073479;28;20444;-68
2022/11/21 06:27:20;;;;;;;14.63;6.57;;;;;;;-0.17;100.00;99889.22;5073508;28;20469;-69
2022/11/21 06:29:47;;;;;;;14.30;6.87;;;;;;;-0.12;100.00;99884.75;5073404;28;20499;-68
2022/11/21 06:32:13;;;;;;;18.37;7.70;;;;;;;-0.15;100.00;99884.44;5073361;28;20438;-69
2022/11/21 06:34:40;;;;;;;15.40;7.47;;;;;;;-0.10;100.00;99892.47;5073376;28;20437;-69
2022/11/21 06:37:06;;;;;;;13.80;6.97;;;;;;;-0.23;100.00;99882.22;5073185;28;20441;-68
2022/11/21 06:39:34;;;;;;;15.63;7.60;;;;;;;-0.26;100.00;99886.19;5072872;28;20987;-69
2022/11/21 06:42:01;;;;;;;19.30;8.43;;;;;;;-0.29;100.00;99889.31;5073244;28;20445;-69
2022/11/21 06:44:27;;;;;;;20.00;7.47;;;;;;;-0.32;100.00;99887.94;5073277;28;20826;-69
2022/11/21 06:46:54;;;;;;;23.93;8.70;;;;;;;-0.34;100.00;99889.25;5073184;28;20441;-69
2022/11/21 06:49:22;;;;;;;17.90;7.57;;;;;;;-0.45;100.00;99890.97;5073192;28;20627;-68
2022/11/21 06:51:48;;;;;;;19.03;7.37;;;;;;;-0.39;100.00;99886.53;5073213;28;20445;-68
2022/11/21 06:54:15;;;;;;;20.23;8.40;;;;;;;-0.22;100.00;99910.41;5072741;28;20448;-68
2022/11/21 06:56:43;;;;;;;21.17;7.40;;;;;;;-0.21;100.00;99912.84;5073135;28;20469;-68
2022/11/21 06:59:10;;;;;;;18.20;7.20;;;;;;;-0.23;99.74;99917.59;5073077;28;20582;-68
2022/11/21 07:01:36;;;;;;;15.37;7.27;;;;;;;-0.26;100.00;99910.94;5073086;28;20562;-68
2022/11/21 07:04:03;;;;;;;18.60;8.33;;;;;;;-0.30;100.00;99914.31;5073059;28;20524;-68
2022/11/21 07:06:30;;;;;;;24.40;8.80;;;;;;;-0.23;100.00;99920.25;5073062;28;20491;-68
2022/11/21 07:08:56;;;;;;;19.20;8.73;;;;;;;-0.18;100.00;99922.19;5073086;28;20520;-68
2022/11/21 07:11:23;;;;;;;22.20;10.00;;;;;;;-0.26;100.00;99924.22;5072648;28;20504;-68
2022/11/21 07:13:50;;;;;;;14.00;7.20;;;;;;;-0.30;100.00;99925.78;5072741;28;20528;-68
2022/11/21 07:16:16;;;;;;;24.57;10.13;;;;;;;-0.36;100.00;99928.59;5072926;28;20449;-68
2022/11/21 07:18:44;;;;;;;22.83;9.27;;;;;;;-0.41;100.00;99933.84;5072897;28;20576;-68
2022/11/21 07:21:10;;;;;;;22.93;9.87;;;;;;;-0.47;100.00;99935.63;5072844;28;20484;-68
2022/11/21 07:23:37;;;;;;;23.27;9.60;;;;;;;-0.52;100.00;99931.06;5072928;28;20536;-68
2022/11/21 07:26:05;;;;;;;33.97;9.50;;;;;;;-0.43;100.00;99939.44;5072982;28;20467;-69
2022/11/21 07:28:33;;;;;;;23.20;9.17;;;;;;;-0.35;100.00;99938.22;5072575;28;20523;-69
2022/11/21 07:31:02;;;;;;;24.20;8.93;;;;;;;-0.34;100.00;99935.28;5072728;28;20450;-70
2022/11/21 07:33:29;;;;;;;30.13;11.40;;;;;;;-0.29;100.00;99942.53;5072761;28;20433;-69
2022/11/21 07:35:56;;;;;;;29.77;10.97;;;;;;;-0.31;100.00;99945.47;5072445;28;20441;-69
2022/11/21 07:38:23;;;;;;;27.10;8.70;;;;;;;-0.43;100.00;99950.06;5072617;28;20492;-69
2022/11/21 07:40:49;;;;;;;22.30;9.20;;;;;;;-0.40;100.00;99948.75;5072584;28;20468;-69
2022/11/21 07:43:16;;;;;;;23.10;9.70;;;;;;;-0.42;100.00;99964.97;5072291;28;21002;-70
2022/11/21 07:45:42;;;;;;;25.90;10.27;;;;;;;-0.49;100.00;99959.00;5072664;28;20532;-70
2022/11/21 07:48:11;;;;;;;25.63;8.00;;;;;;;-0.59;100.00;99948.22;5072569;28;20443;-70
2022/11/21 07:50:38;;;;;;;31.77;9.50;;;;;;;-0.59;100.00;99950.88;5072302;28;20534;-70
2022/11/21 07:53:06;;;;;;;19.27;9.33;;;;;;;-0.53;100.00;99963.22;5072243;28;20524;-70
2022/11/21 07:55:33;;;;;;;20.27;8.43;;;;;;;-0.58;100.00;99961.25;5072229;28;20947;-69
2022/11/21 07:58:01;;;;;;;20.73;8.27;;;;;;;-0.75;100.00;99960.50;5072492;28;20485;-68
2022/11/21 08:00:29;;;;;;;19.63;8.30;;;;;;;-0.83;100.00;99959.03;5072502;28;20469;-69
2022/11/21 08:02:56;;;;;;;19.60;7.40;;;;;;;-0.70;100.00;99967.75;5072190;28;20488;-69
2022/11/21 08:05:25;;;;;;;16.67;7.63;;;;;;;-0.73;100.00;99970.88;5072476;28;20757;-69
2022/11/21 08:07:51;;;;;;;22.07;8.63;;;;;;;-0.76;100.00;99964.97;5075607;28;20437;-70
2022/11/21 08:10:19;;;;;;;18.10;6.63;;;;;;;-1.05;100.00;99977.53;5075945;28;20457;-69
2022/11/21 08:12:45;;;;;;;26.93;7.90;;;;;;;-1.04;100.00;99983.66;5075998;28;20437;-69
2022/11/21 08:15:13;;;;;;;16.80;6.57;;;;;;;-1.01;100.00;99972.56;5075903;28;20492;-70
2022/11/21 08:17:39;;;;;;;14.90;6.07;;;;;;;-1.00;100.00;99976.81;5075879;28;20520;-69
2022/11/21 08:20:08;;;;;;;16.10;6.53;;;;;;;-0.93;100.00;99977.47;5075786;28;20465;-69
2022/11/21 08:22:39;;;;;;;15.70;6.00;;;;;;;-1.02;100.00;99974.41;5075498;28;20538;-70
2022/11/21 08:25:08;;;;;;;20.33;7.37;;;;;;;-1.06;100.00;99977.78;5075775;28;20445;-69
2022/11/21 08:27:34;;;;;;;21.67;7.03;;;;;;;-1.05;100.00;99984.69;5075738;28;20533;-70
2022/11/21 08:30:01;;;;;;;23.30;7.60;;;;;;;-0.93;100.00;99981.97;5075617;28;20472;-69
2022/11/21 08:32:27;;;;;;;20.37;6.90;;;;;;;-0.86;100.00;99985.28;5075629;28;20449;-70
2022/11/21 08:34:54;;;;;;;17.07;6.90;;;;;;;-0.77;100.00;99986.50;5075308;28;20946;-68
2022/11/21 08:37:21;;;;;;;19.10;7.20;;;;;;;-0.80;100.00;99989.63;5075517;28;20484;-72
2022/11/21 08:39:48;;;;;;;30.40;8.57;;;;;;;-0.79;100.00;100000.03;5075292;28;20489;-69
2022/11/21 08:42:15;;;;;;;19.93;7.80;;;;;;;-0.83;100.00;100008.72;5075139;28;20943;-70
2022/11/21 08:44:42;;;;;;;12.27;6.67;;;;;;;-0.86;100.00;99995.91;5075212;28;20845;-70
2022/11/21 08:47:08;;;;;;;20.10;6.73;;;;;;;-0.83;100.00;100004.22;5075200;28;20527;-69
2022/11/21 08:49:35;;;;;;;21.03;7.20;;;;;;;-0.73;100.00;100000.13;5075197;28;20814;-70
2022/11/21 08:52:01;;;;;;;15.53;6.43;;;;;;;-0.74;100.00;100003.84;5075381;28;20803;-69
2022/11/21 08:54:28;;;;;;;15.50;6.60;;;;;;;-0.83;100.00;100004.22;5075046;28;20438;-69
2022/11/21 08:56:56;;;;;;;15.33;5.90;;;;;;;-0.81;100.00;100015.41;5075384;28;21010;-70
2022/11/21 08:59:22;;;;;;;13.97;5.70;;;;;;;-0.76;100.00;100007.50;5075008;28;20576;-70
2022/11/21 09:01:49;;;;;;;14.10;5.80;;;;;;;-0.87;100.00;100016.38;5075173;28;20469;-70
2022/11/21 09:04:15;;;;;;;14.03;5.37;;;;;;;-0.97;100.00;100010.91;5075043;28;20532;-70
2022/11/21 09:06:42;;;;;;;19.17;5.70;;;;;;;-0.93;100.00;100014.69;5075067;28;20441;-70
2022/11/21 09:09:09;;;;;;;15.73;5.93;;;;;;;-0.89;100.00;100012.34;5074936;28;20484;-70
2022/11/21 09:11:36;;;;;;;12.87;5.73;;;;;;;-0.90;100.00;100010.72;5074516;28;20465;-70
2022/11/21 09:19:32;;;;;;;15.17;5.90;;;;;;;-0.87;100.00;100015.56;5074345;28;20460;-70
2022/11/21 09:21:59;;;;;;;12.87;5.00;;;;;;;-0.78;100.00;100004.31;5074389;28;20961;-70
2022/11/21 09:24:26;;;;;;;18.33;6.73;;;;;;;-0.72;100.00;100007.03;5076024;28;20437;-70
2022/11/21 09:26:52;;;;;;;11.60;5.00;;;;;;;-0.79;100.00;100021.31;5074366;28;20477;-70
2022/11/21 09:29:20;;;;;;;17.20;4.53;;;;;;;-0.76;100.00;100018.16;5074600;28;20464;-69
2022/11/21 09:31:47;;;;;;;13.97;5.60;;;;;;;-0.68;100.00;100008.19;5074429;28;20472;-70
2022/11/21 09:34:13;;;;;;;16.37;6.13;;;;;;;-0.61;100.00;100012.28;5073232;28;20492;-69
2022/11/21 09:36:40;;;;;;;12.57;5.40;;;;;;;-0.64;100.00;100009.31;5079810;28;20544;-70
2022/11/21 09:39:06;;;;;;;14.47;5.50;;;;;;;-0.56;100.00;100011.56;5073619;28;20550;-70
2022/11/21 09:41:53;;;;;;;16.30;5.90;;;;;;;-0.58;100.00;100011.00;5073414;28;20477;-70
2022/11/21 09:44:52;;;;;;;10.23;4.57;;;;;;;-0.51;100.00;100012.44;5074135;28;20492;-70
2022/11/21 09:47:25;;;;;;;12.40;4.33;;;;;;;-0.56;100.00;100006.25;5057745;28;20449;-69
2022/11/21 09:49:58;;;;;;;16.37;5.10;;;;;;;-0.45;100.00;100013.31;5076802;28;20480;-70
2022/11/21 09:52:30;;;;;;;14.67;5.47;;;;;;;-0.36;100.00;100019.84;5073678;28;20453;-67
2022/11/21 09:55:01;;;;;;;15.20;5.27;;;;;;;-0.34;100.00;100017.78;5073512;28;20484;-67
2022/11/21 09:57:28;;;;;;;13.20;5.17;;;;;;;-0.26;100.00;100028.00;5073613;28;20503;-69
2022/11/21 09:59:56;;;;;;;17.00;6.17;;;;;;;-0.19;100.00;100035.00;5077683;28;20480;-68
2022/11/21 10:02:24;;;;;;;16.90;5.63;;;;;;;-0.12;100.00;100040.97;5073842;28;20447;-68
2022/11/21 10:04:52;;;;;;;23.77;6.23;;;;;;;-0.06;100.00;100048.78;5073749;28;20462;-67
2022/11/21 10:07:24;;;;;;;16.50;6.00;;;;;;;-0.09;100.00;100035.97;5073100;28;20442;-70
2022/11/21 10:10:20;;;;;;;14.53;5.83;;;;;;;-0.10;100.00;100044.19;5072508;28;21032;-67
2022/11/21 10:13:02;;;;;;;13.57;5.13;;;;;;;-0.08;100.00;100039.44;5070317;28;20462;-68
2022/11/21 10:15:45;;;;;;;19.20;6.70;;;;;;;-0.08;100.00;100044.78;5073447;28;20440;-68
2022/11/21 10:18:52;;;;;;;17.37;6.13;;;;;;;-0.18;99.95;100049.91;5073580;28;20464;-67
2022/11/21 10:21:39;;;;;;;16.47;6.53;;;;;;;-0.27;100.00;100052.19;5033813;28;20465;-67
2022/11/21 10:24:19;;;;;;;16.57;5.53;;;;;;;-0.27;100.00;100046.84;5073191;28;20525;-68
2022/11/21 10:26:51;;;;;;;16.13;5.07;;;;;;;-0.22;100.00;100054.94;5073582;28;20422;-67
2022/11/21 10:29:22;;;;;;;14.13;5.50;;;;;;;-0.19;100.00;100056.28;5072789;28;20453;-67
2022/11/21 10:31:50;;;;;;;18.00;4.80;;;;;;;-0.13;100.00;100058.00;5073097;28;20978;-68
2022/11/21 10:34:21;;;;;;;13.70;6.17;;;;;;;-0.06;100.00;100059.44;5073231;28;20476;-67
2022/11/21 10:36:51;;;;;;;18.20;6.83;;;;;;;-0.07;100.00;100057.03;5073369;28;20441;-67
2022/11/21 10:39:22;;;;;;;18.90;6.13;;;;;;;-0.04;99.92;100056.53;5073182;28;20658;-67
2022/11/21 10:41:55;;;;;;;17.43;6.00;;;;;;;0.02;99.86;100070.72;5073051;28;20508;-67
2022/11/21 10:47:26;;;;;;;15.57;6.23;;;;;;;0.12;99.23;100077.00;5073063;28;20479;-67
2022/11/21 10:50:00;;;;;;;12.67;4.80;;;;;;;0.12;98.89;100082.31;5072930;28;20473;-67
2022/11/21 10:52:31;;;;;;;14.57;5.57;;;;;;;0.09;99.02;100080.16;5073176;28;20424;-67
2022/11/21 10:55:12;;;;;;;16.90;5.50;;;;;;;0.12;99.56;100076.19;5073222;28;20436;-67
2022/11/21 10:57:45;;;;;;;17.13;5.90;;;;;;;0.16;99.88;100079.97;5073226;28;20447;-67
2022/11/21 11:00:23;;;;;;;15.97;6.30;;;;;;;0.22;100.00;100065.66;5073257;28;20481;-67
2022/11/21 11:03:06;;;;;;;13.40;5.30;;;;;;;0.19;99.71;100076.84;5073174;28;20468;-67
2022/11/21 11:05:35;;;;;;;14.13;5.90;;;;;;;0.25;98.58;100068.66;5073218;28;20776;-67
2022/11/21 11:08:05;;;;;;;15.80;5.23;;;;;;;0.23;98.54;100065.44;5073092;28;20437;-67
2022/11/21 11:10:33;;;;;;;13.70;6.30;;;;;;;0.24;98.27;100069.72;5073018;28;20457;-67
2022/11/21 11:15:56;;;;;;;14.80;5.97;;;;;;;0.30;98.71;100062.59;5072943;28;20420;-67
2022/11/21 11:18:25;;;;;;;16.10;6.43;;;;;;;0.29;98.75;100066.31;5072944;28;20878;-67
2022/11/21 11:20:52;;;;;;;17.80;6.67;;;;;;;0.32;99.34;100060.50;5072879;28;20461;-66
2022/11/21 11:23:27;;;;;;;15.70;6.37;;;;;;;0.38;98.94;100067.50;5072897;28;20541;-67
2022/11/21 11:25:55;;;;;;;20.10;5.93;;;;;;;0.37;97.39;100065.88;5072606;28;20476;-67
2022/11/21 11:28:23;;;;;;;11.37;5.70;;;;;;;0.34;97.36;100073.56;5072581;28;20473;-67
2022/11/21 11:30:52;;;;;;;23.47;7.07;;;;;;;0.35;97.92;100075.16;5074265;28;20476;-67
2022/11/21 11:33:30;;;;;;;15.80;6.20;;;;;;;0.37;97.44;100076.53;5076304;28;20500;-67
2022/11/21 11:36:04;;;;;;;12.87;6.80;;;;;;;0.36;97.33;100071.47;5063195;28;20461;-67
2022/11/21 11:38:32;;;;;;;13.93;5.07;;;;;;;0.33;97.93;100079.94;5072176;28;20624;-70
2022/11/21 11:41:02;;;;;;;13.23;5.40;;;;;;;0.30;97.52;100067.91;5075311;28;20515;-68
2022/11/21 11:49:30;;;;;;;14.80;5.93;;;;;;;0.48;97.50;100070.28;5076169;28;20433;-67